createdAt,value
2022-10-17T00:00:31.391Z,12.3
2022-10-17T00:01:31.956Z,12.4
2022-10-17T00:02:32.225Z,12.3
2022-10-17T00:03:33.868Z,12.4
2022-10-17T00:05:33.731Z,11.6
2022-10-17T00:06:34.005Z,12.2
2022-10-17T00:07:34.611Z,12.1
2022-10-17T00:08:34.948Z,11.5
2022-10-17T00:09:35.114Z,11.5
2022-10-17T00:10:36.369Z,11.4
2022-10-17T00:11:36.595Z,11.1
2022-10-17T00:12:36.457Z,12.1
2022-10-17T00:13:37.023Z,11.8
2022-10-17T00:14:37.722Z,11.7
2022-10-17T00:15:38.264Z,76.3
2022-10-17T00:16:38.262Z,115.3
2022-10-17T00:17:38.654Z,154.5
2022-10-17T00:18:39.255Z,92.8
2022-10-17T00:19:39.620Z,22.7
2022-10-17T00:20:40.040Z,15.3
2022-10-17T00:21:40.506Z,12
2022-10-17T00:22:40.865Z,13.2
2022-10-17T00:23:41.582Z,11.2
2022-10-17T00:24:41.767Z,12.3
2022-10-17T00:25:42.305Z,11.8
2022-10-17T00:26:42.622Z,10.6
2022-10-17T00:27:43.037Z,11.4
2022-10-17T00:28:46.719Z,10.9
2022-10-17T00:30:46.097Z,11.5
2022-10-17T00:31:46.667Z,12.3
2022-10-17T00:32:47.067Z,11.1
2022-10-17T00:33:47.895Z,10.1
2022-10-17T00:34:47.793Z,11
2022-10-17T00:35:48.172Z,10.6
2022-10-17T00:36:48.955Z,10.1
2022-10-17T00:37:49.249Z,10.1
2022-10-17T00:38:52.640Z,10.7
2022-10-17T00:39:50.395Z,10.5
2022-10-17T00:40:50.651Z,10.5
2022-10-17T00:41:50.917Z,10.8
2022-10-17T00:42:51.343Z,10.4
2022-10-17T00:45:56.923Z,10.4
2022-10-17T00:47:06.079Z,10.7
2022-10-17T00:48:09.450Z,10.7
2022-10-17T00:49:08.674Z,10
2022-10-17T00:50:07.974Z,9.6
2022-10-17T00:51:06.845Z,10.3
2022-10-17T00:52:11.674Z,9.8
2022-10-17T00:53:10.649Z,9.7
2022-10-17T00:54:11.377Z,10.3
2022-10-17T00:55:16.506Z,9.9
2022-10-17T00:56:15.292Z,9.7
2022-10-17T00:57:16.716Z,9.5
2022-10-17T00:58:15.596Z,9.7
2022-10-17T00:59:17.870Z,9.6
2022-10-17T01:00:16.852Z,9.3
2022-10-17T01:01:16.327Z,9.1
2022-10-17T01:02:19.001Z,9.3
2022-10-17T01:03:17.163Z,9.4
2022-10-17T01:04:19.184Z,9.1
2022-10-17T01:05:19.309Z,9.6
2022-10-17T01:06:19.247Z,9.3
2022-10-17T01:07:19.357Z,9.4
2022-10-17T01:08:19.649Z,8.8
2022-10-17T01:09:20.381Z,9.4
2022-10-17T01:34:21.376Z,8.5
2022-10-17T01:40:36.386Z,8.2
2022-10-17T01:45:53.086Z,7.8
2022-10-17T01:46:51.078Z,8.6
2022-10-17T01:47:52.595Z,8.7
2022-10-17T01:48:50.132Z,8.5
2022-10-17T01:49:53.826Z,7.8
2022-10-17T01:52:06.644Z,7.9
2022-10-17T01:54:03.177Z,8.8
2022-10-17T01:56:01.142Z,8.3
2022-10-17T01:57:07.509Z,8.1
2022-10-17T01:58:06.895Z,8
2022-10-17T01:59:13.349Z,8.1
2022-10-17T02:00:14.134Z,8.4
2022-10-17T02:01:10.123Z,8
2022-10-17T02:02:09.681Z,7.2
2022-10-17T02:03:12.250Z,7.4
2022-10-17T02:04:11.447Z,8.2
2022-10-17T02:05:10.629Z,10.7
2022-10-17T02:06:10.492Z,10.6
2022-10-17T02:07:13.000Z,8.8
2022-10-17T02:08:12.598Z,8.3
2022-10-17T02:09:23.050Z,21.2
2022-10-17T02:11:24.763Z,7.7
2022-10-17T02:31:15.387Z,7.2
2022-10-17T02:32:19.410Z,7.5
2022-10-17T02:33:29.554Z,7.1
2022-10-17T02:34:33.765Z,7.1
2022-10-17T02:35:31.413Z,6.7
2022-10-17T02:36:39.107Z,7.2
2022-10-17T02:37:32.986Z,6.5
2022-10-17T02:38:34.727Z,6.5
2022-10-17T02:39:35.152Z,6.7
2022-10-17T02:40:33.796Z,6.6
2022-10-17T02:41:34.387Z,6.3
2022-10-17T02:42:35.153Z,6.3
2022-10-17T02:43:36.140Z,6.7
2022-10-17T02:44:37.715Z,6.6
2022-10-17T02:45:37.826Z,6.3
2022-10-17T02:46:38.454Z,6.6
2022-10-17T02:49:44.008Z,6.3
2022-10-17T02:52:55.461Z,6
2022-10-17T02:59:09.938Z,30.2
2022-10-17T03:00:11.197Z,8.1
2022-10-17T03:01:09.079Z,7
2022-10-17T03:02:09.170Z,6.4
2022-10-17T03:04:14.813Z,6.8
2022-10-17T03:05:22.392Z,6
2022-10-17T03:06:15.004Z,6
2022-10-17T03:07:15.659Z,5.8
2022-10-17T03:08:15.968Z,6.3
2022-10-17T03:09:16.591Z,5.4
2022-10-17T03:10:17.498Z,5.8
2022-10-17T03:11:17.882Z,5.8
2022-10-17T03:12:17.429Z,5.9
2022-10-17T03:13:18.047Z,5.8
2022-10-17T03:14:18.687Z,5.7
2022-10-17T03:15:18.676Z,6.1
2022-10-17T03:16:18.985Z,5.3
2022-10-17T03:17:19.283Z,5.9
2022-10-17T03:18:19.724Z,5.1
2022-10-17T03:19:20.333Z,5.3
2022-10-17T03:20:20.558Z,5.4
2022-10-17T03:21:21.166Z,5.7
2022-10-17T03:22:21.359Z,5.5
2022-10-17T03:23:21.817Z,5.5
2022-10-17T03:24:22.416Z,5.6
2022-10-17T03:25:22.744Z,5.2
2022-10-17T03:26:23.065Z,5.2
2022-10-17T03:27:23.397Z,5.2
2022-10-17T03:28:23.964Z,5
2022-10-17T03:29:24.716Z,4.9
2022-10-17T03:30:24.673Z,4.9
2022-10-17T03:31:25.335Z,5
2022-10-17T03:32:25.752Z,5.4
2022-10-17T03:33:26.477Z,5
2022-10-17T03:34:26.484Z,5.1
2022-10-17T03:35:27.829Z,5.1
2022-10-17T03:36:27.209Z,5
2022-10-17T03:37:27.993Z,4.6
2022-10-17T03:38:28.048Z,4.9
2022-10-17T03:39:28.577Z,5.3
2022-10-17T03:40:28.774Z,6.4
2022-10-17T03:41:29.306Z,83.4
2022-10-17T03:42:29.706Z,127.1
2022-10-17T03:43:30.226Z,102.9
2022-10-17T03:44:30.536Z,43.8
2022-10-17T03:45:30.867Z,11.6
2022-10-17T03:46:31.272Z,8.3
2022-10-17T03:47:32.245Z,30
2022-10-17T03:48:33.051Z,20.1
2022-10-17T03:49:32.623Z,6.3
2022-10-17T03:50:32.962Z,6
2022-10-17T03:51:34.066Z,6
2022-10-17T03:52:33.793Z,5
2022-10-17T03:53:34.718Z,4.8
2022-10-17T03:54:34.812Z,5.8
2022-10-17T03:55:35.014Z,9
2022-10-17T03:56:35.440Z,6.3
2022-10-17T03:57:36.465Z,5.2
2022-10-17T03:58:36.367Z,5
2022-10-17T03:59:36.999Z,4
2022-10-17T04:00:37.115Z,4.3
2022-10-17T04:01:37.563Z,3.9
2022-10-17T04:02:37.938Z,4
2022-10-17T04:03:38.656Z,4.9
2022-10-17T04:04:38.766Z,4.6
2022-10-17T04:05:39.532Z,4.3
2022-10-17T04:06:39.695Z,4.6
2022-10-17T04:07:40.322Z,4.3
2022-10-17T04:08:40.734Z,4.1
2022-10-17T04:09:40.866Z,3.4
2022-10-17T04:10:41.503Z,4.2
2022-10-17T04:11:41.997Z,4.3
2022-10-17T04:12:42.197Z,3.7
2022-10-17T04:13:42.627Z,3.6
2022-10-17T04:14:43.030Z,3.9
2022-10-17T04:15:43.349Z,3.8
2022-10-17T04:16:44.373Z,4.4
2022-10-17T04:17:44.397Z,4.6
2022-10-17T04:18:44.966Z,4.5
2022-10-17T04:19:45.218Z,3.9
2022-10-17T04:20:45.440Z,3.7
2022-10-17T04:21:46.469Z,3.8
2022-10-17T04:22:46.379Z,3.5
2022-10-17T04:23:46.786Z,3.1
2022-10-17T04:24:47.197Z,3.4
2022-10-17T04:25:47.638Z,4
2022-10-17T04:26:50.381Z,4.4
2022-10-17T04:27:48.446Z,4.2
2022-10-17T04:28:49.199Z,3.6
2022-10-17T04:29:49.236Z,3.8
2022-10-17T04:30:59.933Z,3.7
2022-10-17T04:31:52.784Z,4.1
2022-10-17T04:32:52.786Z,3.7
2022-10-17T04:33:53.196Z,3
2022-10-17T04:34:53.618Z,3.3
2022-10-17T04:36:54.757Z,39.4
2022-10-17T04:37:54.870Z,32.3
2022-10-17T04:38:55.386Z,53.5
2022-10-17T04:39:55.698Z,8.5
2022-10-17T04:42:00.087Z,4
2022-10-17T04:43:00.739Z,3.9
2022-10-17T04:44:01.054Z,3.7
2022-10-17T04:45:01.576Z,3.5
2022-10-17T04:46:04.196Z,3.5
2022-10-17T04:47:02.396Z,4
2022-10-17T04:48:02.826Z,3.4
2022-10-17T04:49:03.439Z,4.1
2022-10-17T04:50:04.873Z,3.9
2022-10-17T04:51:07.856Z,4.5
2022-10-17T04:52:05.296Z,3.9
2022-10-17T04:53:05.831Z,4.5
2022-10-17T04:54:06.437Z,4.2
2022-10-17T04:55:07.260Z,3.9
2022-10-17T04:57:08.058Z,3.2
2022-10-17T04:58:08.408Z,3.5
2022-10-17T04:59:09.048Z,3
2022-10-17T05:00:10.371Z,4.3
2022-10-17T05:01:14.954Z,3.7
2022-10-17T05:02:12.649Z,3.5
2022-10-17T05:03:12.855Z,3.5
2022-10-17T05:04:13.259Z,3.4
2022-10-17T05:05:13.683Z,3.7
2022-10-17T05:06:17.088Z,3.9
2022-10-17T05:07:15.132Z,3.7
2022-10-17T05:08:15.746Z,3.9
2022-10-17T05:09:15.858Z,3.7
2022-10-17T05:10:16.579Z,3.4
2022-10-17T05:11:19.872Z,3.9
2022-10-17T05:12:17.212Z,3.3
2022-10-17T05:13:17.626Z,3.6
2022-10-17T05:14:18.156Z,3.2
2022-10-17T05:15:18.356Z,4.3
2022-10-17T05:16:19.596Z,3.6
2022-10-17T05:17:19.283Z,3.3
2022-10-17T05:18:19.907Z,3
2022-10-17T05:19:20.228Z,3.4
2022-10-17T05:20:20.405Z,3.5
2022-10-17T05:21:22.383Z,3.7
2022-10-17T05:22:21.275Z,3.2
2022-10-17T05:23:21.824Z,3.7
2022-10-17T05:24:22.211Z,13
2022-10-17T05:25:22.619Z,62.2
2022-10-17T05:26:23.354Z,92.4
2022-10-17T05:27:23.450Z,105.7
2022-10-17T05:28:24.177Z,7.4
2022-10-17T05:29:24.419Z,4.4
2022-10-17T05:30:24.708Z,4
2022-10-17T05:31:25.116Z,3.3
2022-10-17T05:32:25.530Z,3.6
2022-10-17T05:33:26.055Z,3
2022-10-17T05:34:26.779Z,3.6
2022-10-17T05:35:26.679Z,4
2022-10-17T05:36:27.192Z,3.7
2022-10-17T05:37:29.874Z,3.7
2022-10-17T05:38:29.059Z,3.9
2022-10-17T05:39:28.355Z,3.6
2022-10-17T05:40:28.767Z,3.4
2022-10-17T05:41:29.291Z,3.4
2022-10-17T05:42:29.848Z,3.5
2022-10-17T05:43:30.742Z,4
2022-10-17T05:44:30.424Z,3.3
2022-10-17T05:45:31.058Z,3.1
2022-10-17T05:46:31.365Z,3.1
2022-10-17T05:47:32.371Z,3.4
2022-10-17T05:48:32.915Z,3.1
2022-10-17T05:49:43.921Z,3.2
2022-10-17T05:50:36.367Z,3.6
2022-10-17T05:51:36.881Z,3.4
2022-10-17T05:52:36.904Z,3.8
2022-10-17T05:53:41.353Z,2.9
2022-10-17T05:54:38.794Z,2.9
2022-10-17T05:55:39.302Z,3.1
2022-10-17T05:56:39.728Z,3.4
2022-10-17T05:57:40.009Z,2.9
2022-10-17T05:58:51.582Z,2.6
2022-10-17T05:59:44.984Z,2.8
2022-10-17T06:01:45.940Z,2.7
2022-10-17T06:02:46.575Z,3.2
2022-10-17T06:03:47.156Z,2.9
2022-10-17T06:04:47.138Z,3.1
2022-10-17T06:05:47.572Z,2.7
2022-10-17T06:06:48.204Z,3.6
2022-10-17T06:07:48.810Z,2.9
2022-10-17T06:08:48.976Z,2.9
2022-10-17T06:09:49.147Z,2.9
2022-10-17T06:10:50.262Z,2.7
2022-10-17T06:11:49.961Z,2.9
2022-10-17T06:12:50.475Z,2.6
2022-10-17T06:13:51.007Z,3.4
2022-10-17T06:14:51.329Z,2.4
2022-10-17T06:15:52.039Z,2.8
2022-10-17T06:16:52.201Z,2.8
2022-10-17T06:17:52.568Z,2.5
2022-10-17T06:18:53.297Z,7.4
2022-10-17T06:19:53.408Z,4.6
2022-10-17T06:20:53.718Z,28.9
2022-10-17T06:21:54.226Z,65.3
2022-10-17T06:22:54.649Z,26.3
2022-10-17T06:23:55.198Z,5.1
2022-10-17T06:24:55.485Z,2.9
2022-10-17T06:25:59.488Z,3.2
2022-10-17T06:26:57.029Z,3.1
2022-10-17T06:27:57.758Z,3
2022-10-17T06:28:58.118Z,2.6
2022-10-17T06:29:58.277Z,3.1
2022-10-17T06:30:58.815Z,2.6
2022-10-17T06:31:59.335Z,2.8
2022-10-17T06:32:59.522Z,2.9
2022-10-17T06:34:00.242Z,2.7
2022-10-17T06:35:00.673Z,2.5
2022-10-17T06:36:00.947Z,2.8
2022-10-17T06:37:01.302Z,2.8
2022-10-17T06:38:01.824Z,2.6
2022-10-17T06:39:02.232Z,2.6
2022-10-17T06:40:02.519Z,3.1
2022-10-17T06:41:13.924Z,3
2022-10-17T06:42:07.078Z,2.5
2022-10-17T06:43:06.858Z,2.6
2022-10-17T06:44:07.796Z,3.1
2022-10-17T06:45:08.865Z,2.7
2022-10-17T06:46:08.243Z,2.2
2022-10-17T06:47:10.178Z,2.7
2022-10-17T06:48:09.055Z,2.5
2022-10-17T06:49:10.600Z,2.5
2022-10-17T06:50:09.886Z,2.6
2022-10-17T06:51:11.065Z,2.7
2022-10-17T06:52:10.911Z,2.6
2022-10-17T06:53:11.024Z,2.3
2022-10-17T06:54:11.765Z,2.3
2022-10-17T06:55:11.862Z,2.4
2022-10-17T06:56:12.247Z,2.1
2022-10-17T06:57:12.798Z,2.5
2022-10-17T06:58:13.219Z,3
2022-10-17T06:59:13.690Z,2.3
2022-10-17T07:00:14.557Z,2.3
2022-10-17T07:01:14.452Z,2.4
2022-10-17T07:02:14.872Z,2.3
2022-10-17T07:03:15.393Z,2.6
2022-10-17T07:04:16.007Z,2.2
2022-10-17T07:05:16.326Z,2.4
2022-10-17T07:06:16.653Z,2
2022-10-17T07:07:17.050Z,2.1
2022-10-17T07:08:17.373Z,2.2
2022-10-17T07:09:18.202Z,2.4
2022-10-17T07:10:18.303Z,2.3
2022-10-17T07:11:20.667Z,1.9
2022-10-17T07:12:19.142Z,2.3
2022-10-17T07:13:19.969Z,4.4
2022-10-17T07:14:19.872Z,7.5
2022-10-17T07:15:20.388Z,6.2
2022-10-17T07:16:20.915Z,46.9
2022-10-17T07:17:21.223Z,46.2
2022-10-17T07:18:21.834Z,6.5
2022-10-17T07:19:22.171Z,2.9
2022-10-17T07:20:22.670Z,2.3
2022-10-17T07:21:23.198Z,2.8
2022-10-17T07:22:23.512Z,2.6
2022-10-17T07:23:24.242Z,2.5
2022-10-17T07:24:24.233Z,2.3
2022-10-17T07:25:25.068Z,2.4
2022-10-17T07:26:25.483Z,2.7
2022-10-17T07:27:25.908Z,2.3
2022-10-17T07:28:26.111Z,2.5
2022-10-17T07:29:26.722Z,2.3
2022-10-17T07:30:27.045Z,2.5
2022-10-17T07:31:27.565Z,2.1
2022-10-17T07:32:27.883Z,2.3
2022-10-17T07:33:28.398Z,2.5
2022-10-17T07:34:28.806Z,2.1
2022-10-17T07:35:29.122Z,2.3
2022-10-17T07:36:29.589Z,2.3
2022-10-17T07:37:30.607Z,2.4
2022-10-17T07:38:30.683Z,1.8
2022-10-17T07:39:31.000Z,2.6
2022-10-17T07:40:31.304Z,2.3
2022-10-17T07:41:31.619Z,2.5
2022-10-17T07:42:32.849Z,2
2022-10-17T07:43:34.115Z,2.3
2022-10-17T07:44:33.494Z,3.2
2022-10-17T07:45:33.488Z,2.8
2022-10-17T07:46:33.908Z,1.9
2022-10-17T07:47:34.344Z,2.6
2022-10-17T07:48:35.469Z,2.3
2022-10-17T07:49:35.058Z,2.2
2022-10-17T07:50:35.788Z,2.1
2022-10-17T07:51:36.057Z,2.3
2022-10-17T07:52:36.517Z,2.2
2022-10-17T07:53:42.681Z,2.5
2022-10-17T07:54:38.167Z,2.5
2022-10-17T07:55:38.993Z,2.3
2022-10-17T07:56:38.554Z,2.4
2022-10-17T07:57:39.010Z,2
2022-10-17T07:58:40.042Z,2.4
2022-10-17T07:59:39.728Z,2.7
2022-10-17T08:00:40.947Z,2.5
2022-10-17T08:01:40.767Z,1.8
2022-10-17T08:02:41.186Z,2.1
2022-10-17T08:03:43.241Z,2.4
2022-10-17T08:04:42.117Z,2.4
2022-10-17T08:05:42.421Z,2.2
2022-10-17T08:06:42.854Z,2.1
2022-10-17T08:07:43.264Z,2.2
2022-10-17T08:08:44.401Z,2.3
2022-10-17T08:09:44.517Z,2.6
2022-10-17T08:10:44.722Z,2.2
2022-10-17T08:11:45.039Z,2.4
2022-10-17T08:12:45.560Z,2.1
2022-10-17T08:13:45.870Z,2.3
2022-10-17T08:14:46.299Z,1.9
2022-10-17T08:15:46.909Z,2.2
2022-10-17T08:16:47.427Z,2.1
2022-10-17T08:17:47.532Z,2.3
2022-10-17T08:18:48.300Z,2.6
2022-10-17T08:19:48.377Z,2.5
2022-10-17T08:20:48.889Z,2.2
2022-10-17T08:21:49.302Z,2.2
2022-10-17T08:22:56.069Z,3.6
2022-10-17T08:23:54.102Z,4.3
2022-10-17T08:24:54.245Z,9.9
2022-10-17T08:25:54.454Z,44.9
2022-10-17T08:26:55.169Z,13
2022-10-17T08:27:55.531Z,9.6
2022-10-17T08:28:56.098Z,3.5
2022-10-17T08:29:56.340Z,2.1
2022-10-17T08:32:01.193Z,2.6
2022-10-17T08:32:59.920Z,2.3
2022-10-17T08:34:00.853Z,2.2
2022-10-17T08:35:00.853Z,2.3
2022-10-17T08:36:01.551Z,2.4
2022-10-17T08:37:01.734Z,2.9
2022-10-17T08:38:02.215Z,2.3
2022-10-17T08:39:02.832Z,2.2
2022-10-17T08:40:02.943Z,2.6
2022-10-17T08:41:13.289Z,2.1
2022-10-17T08:48:24.398Z,1.8
2022-10-17T08:51:34.855Z,2.3
2022-10-17T08:53:40.089Z,2.2
2022-10-17T08:54:42.321Z,2
2022-10-17T08:56:49.733Z,2.4
2022-10-17T08:57:42.907Z,2.3
2022-10-17T08:58:43.008Z,2.4
2022-10-17T08:59:44.659Z,1.7
2022-10-17T09:00:54.891Z,1.9
2022-10-17T09:18:43.029Z,2.6
2022-10-17T09:19:40.475Z,2.1
2022-10-17T09:20:38.337Z,2.2
2022-10-17T09:22:52.554Z,1.9
2022-10-17T09:26:45.849Z,2.1
2022-10-17T09:28:54.221Z,2.1
2022-10-17T09:32:59.197Z,2.5
2022-10-17T09:43:30.398Z,6.8
2022-10-17T09:50:42.370Z,2.1
2022-10-17T09:51:42.764Z,2.1
2022-10-17T09:52:44.215Z,1.6
2022-10-17T09:54:50.668Z,2.4
2022-10-17T09:58:58.681Z,1.8
2022-10-17T10:05:14.810Z,1.9
2022-10-17T10:11:13.808Z,2.6
2022-10-17T10:16:31.924Z,2
2022-10-17T10:18:35.035Z,2.4
2022-10-17T10:19:36.401Z,2
2022-10-17T10:20:36.817Z,2
2022-10-17T10:21:37.165Z,2.1
2022-10-17T10:22:34.991Z,1.7
2022-10-17T10:23:36.733Z,1.8
2022-10-17T10:24:35.828Z,2.1
2022-10-17T10:25:36.646Z,1.9
2022-10-17T10:26:50.352Z,2
2022-10-17T10:27:40.441Z,2.4
2022-10-17T10:28:38.750Z,2.2
2022-10-17T10:29:50.082Z,2.3
2022-10-17T10:30:49.684Z,6.7
2022-10-17T10:31:48.462Z,2.3
2022-10-17T10:32:49.178Z,2.2
2022-10-17T10:33:50.505Z,2.4
2022-10-17T10:36:01.966Z,1.9
2022-10-17T10:36:59.635Z,2.4
2022-10-17T10:37:59.049Z,1.9
2022-10-17T10:39:01.300Z,2
2022-10-17T10:41:07.316Z,2.9
2022-10-17T10:42:08.905Z,1.8
2022-10-17T10:43:07.065Z,1.7
2022-10-17T10:47:25.421Z,2.1
2022-10-17T10:48:30.647Z,2.1
2022-10-17T10:55:38.476Z,1.8
2022-10-17T10:57:37.888Z,2.1
2022-10-17T11:00:39.128Z,2
2022-10-17T11:11:17.909Z,2
2022-10-17T11:22:49.928Z,1.3
2022-10-17T11:23:51.766Z,1.8
2022-10-17T11:24:53.156Z,1.8
2022-10-17T11:25:46.365Z,1.8
2022-10-17T11:26:54.145Z,1.8
2022-10-17T11:27:46.709Z,2
2022-10-17T11:28:47.554Z,1.9
2022-10-17T11:29:48.125Z,2.1
2022-10-17T11:31:57.046Z,1.7
2022-10-17T11:33:01.146Z,1.6
2022-10-17T11:41:23.226Z,1.7
2022-10-17T11:42:27.677Z,1.3
2022-10-17T11:45:26.177Z,2
2022-10-17T11:46:26.784Z,1.8
2022-10-17T11:52:56.361Z,1.8
2022-10-17T11:53:57.398Z,1.6
2022-10-17T11:55:47.969Z,2.3
2022-10-17T12:15:38.488Z,1.8
2022-10-17T12:18:45.268Z,1.8
2022-10-17T12:19:45.483Z,8.8
2022-10-17T12:22:51.650Z,1.5
2022-10-17T12:26:05.466Z,3.5
2022-10-17T12:26:56.374Z,1.9
2022-10-17T12:28:57.383Z,2.7
2022-10-17T12:37:14.369Z,2.1
2022-10-17T12:38:23.713Z,1.7
2022-10-17T12:47:38.907Z,1.9
2022-10-17T12:55:59.136Z,1.5
2022-10-17T12:56:51.677Z,1.6
2022-10-17T12:58:54.106Z,1.7
2022-10-17T12:59:58.654Z,1.5
2022-10-17T13:01:23.064Z,2
2022-10-17T13:02:03.577Z,1.5
2022-10-17T13:04:04.200Z,1.5
2022-10-17T13:06:07.696Z,2
2022-10-17T13:07:05.356Z,1.5
2022-10-17T13:08:13.245Z,1.6
2022-10-17T13:09:15.709Z,1.5
2022-10-17T13:11:11.527Z,1.8
2022-10-17T13:13:21.376Z,1.7
2022-10-17T13:14:21.466Z,1.5
2022-10-17T13:15:20.967Z,1.5
2022-10-17T13:18:28.467Z,1.7
2022-10-17T13:20:31.865Z,1.7
2022-10-17T13:21:29.982Z,1.8
2022-10-17T13:22:32.706Z,1.5
2022-10-17T13:25:38.902Z,1.6
2022-10-17T13:26:37.116Z,1.4
2022-10-17T13:27:38.047Z,1.6
2022-10-17T13:28:39.553Z,1.6
2022-10-17T13:31:44.848Z,1.7
2022-10-17T13:32:43.818Z,1.8
2022-10-17T13:33:43.887Z,2.2
2022-10-17T13:34:44.542Z,1.7
2022-10-17T13:35:59.937Z,77.5
2022-10-17T13:36:52.231Z,35.4
2022-10-17T13:37:53.964Z,8.9
2022-10-17T13:38:52.243Z,2.6
2022-10-17T13:39:55.690Z,1.9
2022-10-17T13:41:02.030Z,1.8
2022-10-17T13:41:59.022Z,1.5
2022-10-17T13:42:59.957Z,1.7
2022-10-17T13:43:59.344Z,2.5
2022-10-17T13:45:00.186Z,2.1
2022-10-17T13:46:19.340Z,2
2022-10-17T13:47:02.858Z,1.8
2022-10-17T13:48:06.647Z,2.2
2022-10-17T13:49:12.906Z,1.5
2022-10-17T13:50:12.798Z,1.6
2022-10-17T13:51:11.106Z,1.5
2022-10-17T13:52:21.729Z,1.7
2022-10-17T13:55:18.040Z,1.4
2022-10-17T13:57:24.586Z,1.6
2022-10-17T13:58:22.179Z,1.6
2022-10-17T13:59:26.083Z,1.4
2022-10-17T14:00:23.834Z,1.8
2022-10-17T14:01:26.296Z,1.7
2022-10-17T14:02:27.325Z,1.8
2022-10-17T14:03:31.225Z,1.4
2022-10-17T14:04:40.020Z,1.6
2022-10-17T14:05:34.203Z,1.3
2022-10-17T14:08:39.657Z,1.4
2022-10-17T14:09:38.854Z,1.3
2022-10-17T14:10:41.106Z,1.6
2022-10-17T14:11:42.122Z,1.2
2022-10-17T14:12:43.665Z,1.6
2022-10-17T14:13:41.518Z,5.2
2022-10-17T14:15:46.041Z,3.3
2022-10-17T14:16:44.120Z,2.4
2022-10-17T14:17:45.756Z,1.6
2022-10-17T14:18:48.218Z,1.8
2022-10-17T14:19:51.492Z,1.9
2022-10-17T14:21:34.008Z,2.3
2022-10-17T14:23:21.828Z,1.8
2022-10-17T14:25:02.437Z,1.5
2022-10-17T14:27:03.111Z,2.1
2022-10-17T14:31:22.497Z,3.2
2022-10-17T14:32:17.797Z,5.7
2022-10-17T14:35:37.297Z,2.9
2022-10-17T14:36:21.610Z,2.4
2022-10-17T14:38:25.468Z,2.2
2022-10-17T14:39:27.316Z,2
2022-10-17T14:40:28.489Z,2
2022-10-17T14:41:42.441Z,2.2
2022-10-17T14:42:31.262Z,1.6
2022-10-17T14:43:32.805Z,1.8
2022-10-17T14:44:36.001Z,2.2
2022-10-17T14:45:38.678Z,2.4
2022-10-17T14:46:37.136Z,1.9
2022-10-17T14:47:43.734Z,3
2022-10-17T14:48:36.740Z,2.7
2022-10-17T14:49:39.423Z,2.1
2022-10-17T14:50:38.135Z,2.2
2022-10-17T14:51:50.344Z,2.9
2022-10-17T14:52:40.240Z,3
2022-10-17T14:53:40.862Z,3.6
2022-10-17T14:54:40.771Z,3.9
2022-10-17T14:56:43.350Z,3
2022-10-17T14:57:45.404Z,6.1
2022-10-17T14:58:43.259Z,4.7
2022-10-17T14:59:53.721Z,4.2
2022-10-17T15:00:47.567Z,3.6
2022-10-17T15:01:50.952Z,3.2
2022-10-17T15:02:51.433Z,3.6
2022-10-17T15:03:49.211Z,3.3
2022-10-17T15:04:49.335Z,2.8
2022-10-17T15:05:50.666Z,2.9
2022-10-17T15:06:54.986Z,2.4
2022-10-17T15:07:53.751Z,2.5
2022-10-17T15:08:53.151Z,1.9
2022-10-17T15:09:54.184Z,3.2
2022-10-17T15:10:53.878Z,6.3
2022-10-17T15:11:55.525Z,7.8
2022-10-17T15:12:59.380Z,8.4
2022-10-17T15:13:57.375Z,13.3
2022-10-17T15:14:57.793Z,6.6
2022-10-17T15:15:58.319Z,4.5
2022-10-17T15:16:58.722Z,12.8
2022-10-17T15:17:59.352Z,12.2
2022-10-17T15:18:59.466Z,5.7
2022-10-17T15:19:59.873Z,4.8
2022-10-17T15:21:05.294Z,5.5
2022-10-17T15:22:04.303Z,3.8
2022-10-17T15:23:04.909Z,2.6
2022-10-17T15:24:05.531Z,3
2022-10-17T15:25:06.667Z,2.4
2022-10-17T15:27:15.505Z,10.8
2022-10-17T15:28:13.544Z,8.8
2022-10-17T15:29:15.607Z,4.6
2022-10-17T15:31:17.558Z,2.5
2022-10-17T15:32:15.928Z,2.1
2022-10-17T15:33:15.831Z,2.5
2022-10-17T15:34:16.154Z,3
2022-10-17T15:35:17.275Z,2.6
2022-10-17T15:37:24.869Z,4.9
2022-10-17T15:38:22.419Z,11.1
2022-10-17T15:39:22.740Z,9.5
2022-10-17T15:40:26.324Z,10.2
2022-10-17T15:41:26.028Z,7.9
2022-10-17T15:42:28.799Z,5.9
2022-10-17T15:43:26.242Z,5.1
2022-10-17T15:44:29.325Z,4.5
2022-10-17T15:45:27.076Z,3.8
2022-10-17T15:46:34.047Z,3
2022-10-17T15:47:33.326Z,2.6
2022-10-17T15:48:32.113Z,2
2022-10-17T15:49:32.422Z,2.4
2022-10-17T15:50:32.748Z,2.1
2022-10-17T15:51:33.874Z,1.8
2022-10-17T15:52:33.571Z,1.8
2022-10-17T15:53:34.085Z,1.5
2022-10-17T15:54:34.304Z,1.8
2022-10-17T15:55:36.148Z,1.7
2022-10-17T15:56:41.526Z,1.8
2022-10-17T15:57:41.592Z,3.9
2022-10-17T15:58:40.474Z,4.4
2022-10-17T15:59:39.891Z,5.6
2022-10-17T16:00:40.740Z,4.2
2022-10-17T16:01:41.719Z,3.3
2022-10-17T16:02:41.223Z,2.9
2022-10-17T16:03:41.423Z,2
2022-10-17T16:04:42.057Z,2.4
2022-10-17T16:05:42.269Z,2.4
2022-10-17T16:06:43.306Z,2.6
2022-10-17T16:07:44.319Z,3.9
2022-10-17T16:08:43.613Z,2.2
2022-10-17T16:09:43.924Z,2.2
2022-10-17T16:10:44.539Z,1.5
2022-10-17T16:11:45.471Z,3.5
2022-10-17T16:12:45.792Z,5.4
2022-10-17T16:13:54.156Z,5.2
2022-10-17T16:14:46.508Z,6
2022-10-17T16:15:47.134Z,18.4
2022-10-17T16:16:47.358Z,11.3
2022-10-17T16:17:47.665Z,8.4
2022-10-17T16:18:48.800Z,12.5
2022-10-17T16:19:48.589Z,11.7
2022-10-17T16:20:49.122Z,12.7
2022-10-17T16:21:49.741Z,15
2022-10-17T16:22:50.358Z,17.9
2022-10-17T16:23:50.364Z,16.6
2022-10-17T16:24:50.747Z,14.8
2022-10-17T16:25:51.398Z,12.1
2022-10-17T16:26:51.715Z,10.7
2022-10-17T16:27:53.778Z,6.6
2022-10-17T16:28:52.311Z,6.2
2022-10-17T16:29:52.753Z,6.2
2022-10-17T16:30:53.389Z,7.1
2022-10-17T16:31:53.496Z,6.3
2022-10-17T16:32:55.140Z,7.3
2022-10-17T16:33:55.548Z,8.4
2022-10-17T16:34:54.638Z,6.3
2022-10-17T16:35:55.261Z,6.9
2022-10-17T16:36:55.564Z,7.7
2022-10-17T16:37:55.986Z,6.3
2022-10-17T16:38:56.408Z,5.6
2022-10-17T16:39:56.726Z,4.2
2022-10-17T16:40:57.350Z,2.8
2022-10-17T16:41:58.654Z,5.4
2022-10-17T16:42:57.961Z,3.1
2022-10-17T16:44:04.084Z,2.3
2022-10-17T16:45:01.668Z,2.2
2022-10-17T16:46:04.335Z,2
2022-10-17T16:47:02.276Z,2.4
2022-10-17T16:48:02.815Z,2.3
2022-10-17T16:49:04.867Z,2.2
2022-10-17T16:50:03.851Z,1.8
2022-10-17T16:51:04.273Z,2.6
2022-10-17T16:52:04.881Z,2.1
2022-10-17T16:53:04.688Z,2.2
2022-10-17T16:54:05.117Z,1.8
2022-10-17T16:55:06.448Z,2.2
2022-10-17T16:56:08.656Z,2.3
2022-10-17T16:57:06.455Z,2.4
2022-10-17T16:58:06.769Z,2.7
2022-10-17T16:59:07.183Z,2.2
2022-10-17T17:00:08.931Z,2.2
2022-10-17T17:01:11.852Z,1.9
2022-10-17T17:02:11.943Z,2.2
2022-10-17T17:03:09.762Z,2
2022-10-17T17:04:10.295Z,2.3
2022-10-17T17:05:11.118Z,2.4
2022-10-17T17:07:14.718Z,5
2022-10-17T17:08:15.235Z,2.6
2022-10-17T17:09:15.644Z,2.4
2022-10-17T17:10:16.169Z,2.4
2022-10-17T17:11:19.657Z,2.5
2022-10-17T17:12:17.102Z,2.9
2022-10-17T17:13:17.861Z,2.9
2022-10-17T17:14:18.028Z,2.5
2022-10-17T17:15:18.407Z,2.9
2022-10-17T17:16:22.978Z,2.9
2022-10-17T17:17:37.156Z,3.3
2022-10-17T17:18:22.868Z,9.4
2022-10-17T17:19:22.884Z,5.9
2022-10-17T17:20:23.404Z,5
2022-10-17T17:21:24.337Z,6.8
2022-10-17T17:22:24.334Z,7.8
2022-10-17T17:23:24.715Z,7.5
2022-10-17T17:24:25.166Z,4.1
2022-10-17T17:25:25.527Z,5.3
2022-10-17T17:26:27.650Z,4.7
2022-10-17T17:27:28.604Z,4.1
2022-10-17T17:28:27.902Z,3.2
2022-10-17T17:29:27.138Z,3.2
2022-10-17T17:30:27.668Z,2.9
2022-10-17T17:31:30.952Z,3.7
2022-10-17T17:32:28.388Z,2.7
2022-10-17T17:33:28.806Z,2.7
2022-10-17T17:34:29.122Z,2.4
2022-10-17T17:35:29.747Z,2.5
2022-10-17T17:36:33.023Z,2.1
2022-10-17T17:37:30.831Z,2.8
2022-10-17T17:38:33.351Z,2.4
2022-10-17T17:39:31.508Z,2.6
2022-10-17T17:40:31.841Z,2.6
2022-10-17T17:41:32.652Z,2.3
2022-10-17T17:42:32.556Z,3
2022-10-17T17:43:32.978Z,2.8
2022-10-17T17:44:33.362Z,2.3
2022-10-17T17:45:34.933Z,2.2
2022-10-17T17:46:34.012Z,2.4
2022-10-17T17:47:34.638Z,2
2022-10-17T17:48:38.025Z,1.9
2022-10-17T17:49:35.470Z,2
2022-10-17T17:51:38.136Z,2.2
2022-10-17T17:52:38.053Z,6.4
2022-10-17T17:53:39.179Z,8
2022-10-17T17:54:40.894Z,6.5
2022-10-17T17:55:39.061Z,8.2
2022-10-17T17:56:39.927Z,20.7
2022-10-17T17:57:40.030Z,10.3
2022-10-17T17:58:41.574Z,6.3
2022-10-17T17:59:40.768Z,4.4
2022-10-17T18:00:41.788Z,3.5
2022-10-17T18:01:41.848Z,3.3
2022-10-17T18:02:44.390Z,3.3
2022-10-17T18:03:42.432Z,3.2
2022-10-17T18:04:42.852Z,2.7
2022-10-17T18:05:43.260Z,2.5
2022-10-17T18:06:43.976Z,3
2022-10-17T18:07:44.245Z,2.6
2022-10-17T18:08:46.353Z,3.5
2022-10-17T18:09:45.033Z,4.6
2022-10-17T18:11:48.514Z,3.9
2022-10-17T18:12:49.254Z,2.7
2022-10-17T18:14:50.164Z,2.3
2022-10-17T18:15:50.753Z,2.2
2022-10-17T18:16:51.108Z,2.2
2022-10-17T18:17:51.279Z,2.2
2022-10-17T18:18:51.736Z,2.5
2022-10-17T18:19:51.946Z,2.5
2022-10-17T18:20:52.723Z,2.3
2022-10-17T18:21:52.885Z,2.3
2022-10-17T18:22:53.232Z,2
2022-10-17T18:23:53.594Z,2.3
2022-10-17T18:24:54.033Z,2.3
2022-10-17T18:25:59.260Z,1.9
2022-10-17T18:26:56.601Z,2
2022-10-17T18:27:57.224Z,2.4
2022-10-17T18:28:57.541Z,2.4
2022-10-17T18:30:00.616Z,2.3
2022-10-17T18:31:03.694Z,2.6
2022-10-17T18:32:01.038Z,2.3
2022-10-17T18:33:01.655Z,2.1
2022-10-17T18:34:02.457Z,2.4
2022-10-17T18:35:02.317Z,2.2
2022-10-17T18:36:10.803Z,2.4
2022-10-17T18:37:03.629Z,2.4
2022-10-17T18:38:03.737Z,2.1
2022-10-17T18:39:05.077Z,2.4
2022-10-17T18:40:05.712Z,2.6
2022-10-17T18:42:07.011Z,2.3